sensor_id;sensor_type;location;lat;lon;timestamp;P1;durP1;ratioP1;P2;durP2;ratioP2
1370;SDS011;14306;49.942;11.570;2023-08-12T00:02:16;7.13;;;6.03;;
1370;SDS011;14306;49.942;11.570;2023-08-12T00:04:45;6.23;;;5.50;;
1370;SDS011;14306;49.942;11.570;2023-08-12T00:07:15;8.63;;;5.97;;
1370;SDS011;14306;49.942;11.570;2023-08-12T00:09:43;6.17;;;5.57;;
1370;SDS011;14306;49.942;11.570;2023-08-12T00:12:14;7.07;;;5.57;;
1370;SDS011;14306;49.942;11.570;2023-08-12T00:14:42;7.10;;;5.70;;
1370;SDS011;14306;49.942;11.570;2023-08-12T00:17:11;6.53;;;5.33;;
1370;SDS011;14306;49.942;11.570;2023-08-12T00:19:39;8.03;;;6.07;;
1370;SDS011;14306;49.942;11.570;2023-08-12T00:22:07;6.13;;;5.63;;
1370;SDS011;14306;49.942;11.570;2023-08-12T00:24:37;7.53;;;5.70;;
1370;SDS011;14306;49.942;11.570;2023-08-12T00:27:05;9.87;;;5.97;;
1370;SDS011;14306;49.942;11.570;2023-08-12T00:29:35;11.40;;;5.70;;
1370;SDS011;14306;49.942;11.570;2023-08-12T00:32:04;9.03;;;6.07;;
1370;SDS011;14306;49.942;11.570;2023-08-12T00:34:32;6.73;;;5.63;;
1370;SDS011;14306;49.942;11.570;2023-08-12T00:37:01;6.57;;;5.73;;
1370;SDS011;14306;49.942;11.570;2023-08-12T00:39:29;6.40;;;5.80;;
1370;SDS011;14306;49.942;11.570;2023-08-12T00:41:59;8.80;;;5.83;;
1370;SDS011;14306;49.942;11.570;2023-08-12T00:44:27;7.20;;;5.87;;
1370;SDS011;14306;49.942;11.570;2023-08-12T00:46:55;7.97;;;6.80;;
1370;SDS011;14306;49.942;11.570;2023-08-12T00:49:24;9.70;;;6.13;;
1370;SDS011;14306;49.942;11.570;2023-08-12T00:51:53;6.50;;;5.83;;
1370;SDS011;14306;49.942;11.570;2023-08-12T00:54:22;8.90;;;6.27;;
1370;SDS011;14306;49.942;11.570;2023-08-12T00:56:52;8.50;;;5.80;;
1370;SDS011;14306;49.942;11.570;2023-08-12T00:59:22;7.50;;;5.60;;
1370;SDS011;14306;49.942;11.570;2023-08-12T01:01:52;7.77;;;6.60;;
1370;SDS011;14306;49.942;11.570;2023-08-12T01:04:20;9.23;;;6.63;;
1370;SDS011;14306;49.942;11.570;2023-08-12T01:06:48;7.03;;;5.43;;
1370;SDS011;14306;49.942;11.570;2023-08-12T01:09:17;7.17;;;6.10;;
1370;SDS011;14306;49.942;11.570;2023-08-12T01:11:46;7.30;;;6.50;;
1370;SDS011;14306;49.942;11.570;2023-08-12T01:14:19;9.00;;;6.97;;
1370;SDS011;14306;49.942;11.570;2023-08-12T01:16:56;9.30;;;7.20;;
1370;SDS011;14306;49.942;11.570;2023-08-12T01:19:32;7.97;;;6.50;;
1370;SDS011;14306;49.942;11.570;2023-08-12T01:22:02;11.23;;;7.47;;
1370;SDS011;14306;49.942;11.570;2023-08-12T01:24:37;10.63;;;7.37;;
1370;SDS011;14306;49.942;11.570;2023-08-12T01:27:06;8.97;;;6.77;;
1370;SDS011;14306;49.942;11.570;2023-08-12T01:29:37;6.83;;;6.00;;
1370;SDS011;14306;49.942;11.570;2023-08-12T01:32:09;8.93;;;6.53;;
1370;SDS011;14306;49.942;11.570;2023-08-12T01:34:44;9.60;;;7.07;;
1370;SDS011;14306;49.942;11.570;2023-08-12T01:37:17;6.90;;;5.90;;
1370;SDS011;14306;49.942;11.570;2023-08-12T01:39:53;9.33;;;6.03;;
1370;SDS011;14306;49.942;11.570;2023-08-12T01:42:23;6.20;;;5.23;;
1370;SDS011;14306;49.942;11.570;2023-08-12T01:44:52;9.37;;;6.70;;
1370;SDS011;14306;49.942;11.570;2023-08-12T01:47:20;8.87;;;6.00;;
1370;SDS011;14306;49.942;11.570;2023-08-12T01:49:48;6.50;;;5.67;;
1370;SDS011;14306;49.942;11.570;2023-08-12T01:52:16;10.63;;;6.97;;
1370;SDS011;14306;49.942;11.570;2023-08-12T01:54:44;6.30;;;5.70;;
1370;SDS011;14306;49.942;11.570;2023-08-12T01:57:14;9.03;;;6.30;;
1370;SDS011;14306;49.942;11.570;2023-08-12T01:59:42;6.40;;;5.80;;
1370;SDS011;14306;49.942;11.570;2023-08-12T02:02:11;8.17;;;5.93;;
1370;SDS011;14306;49.942;11.570;2023-08-12T02:04:39;8.10;;;6.23;;
1370;SDS011;14306;49.942;11.570;2023-08-12T02:07:09;8.77;;;6.97;;
1370;SDS011;14306;49.942;11.570;2023-08-12T02:09:38;6.17;;;5.57;;
1370;SDS011;14306;49.942;11.570;2023-08-12T02:12:06;11.13;;;6.50;;
1370;SDS011;14306;49.942;11.570;2023-08-12T02:14:36;14.93;;;6.20;;
1370;SDS011;14306;49.942;11.570;2023-08-12T02:17:04;7.33;;;6.07;;
1370;SDS011;14306;49.942;11.570;2023-08-12T02:19:33;8.10;;;6.80;;
1370;SDS011;14306;49.942;11.570;2023-08-12T02:22:01;10.00;;;5.80;;
1370;SDS011;14306;49.942;11.570;2023-08-12T02:24:30;6.80;;;6.07;;
1370;SDS011;14306;49.942;11.570;2023-08-12T02:26:58;7.00;;;6.20;;
1370;SDS011;14306;49.942;11.570;2023-08-12T02:29:26;6.70;;;5.80;;
1370;SDS011;14306;49.942;11.570;2023-08-12T02:31:55;5.17;;;4.67;;
1370;SDS011;14306;49.942;11.570;2023-08-12T02:34:23;6.27;;;5.20;;
1370;SDS011;14306;49.942;11.570;2023-08-12T02:36:52;6.20;;;5.40;;
1370;SDS011;14306;49.942;11.570;2023-08-12T02:39:20;8.87;;;6.03;;
1370;SDS011;14306;49.942;11.570;2023-08-12T02:41:48;6.53;;;5.90;;
1370;SDS011;14306;49.942;11.570;2023-08-12T02:44:16;6.80;;;6.13;;
1370;SDS011;14306;49.942;11.570;2023-08-12T02:46:45;8.13;;;6.67;;
1370;SDS011;14306;49.942;11.570;2023-08-12T02:49:14;11.77;;;6.10;;
1370;SDS011;14306;49.942;11.570;2023-08-12T02:51:42;7.80;;;6.10;;
1370;SDS011;14306;49.942;11.570;2023-08-12T02:54:11;8.87;;;7.40;;
1370;SDS011;14306;49.942;11.570;2023-08-12T02:56:39;12.00;;;6.93;;
1370;SDS011;14306;49.942;11.570;2023-08-12T02:59:07;7.63;;;6.47;;
1370;SDS011;14306;49.942;11.570;2023-08-12T03:01:35;9.47;;;7.47;;
1370;SDS011;14306;49.942;11.570;2023-08-12T03:04:04;8.90;;;7.00;;
1370;SDS011;14306;49.942;11.570;2023-08-12T03:06:34;7.93;;;5.97;;
1370;SDS011;14306;49.942;11.570;2023-08-12T03:09:02;7.43;;;6.50;;
1370;SDS011;14306;49.942;11.570;2023-08-12T03:11:30;6.77;;;6.03;;
1370;SDS011;14306;49.942;11.570;2023-08-12T03:13:59;7.00;;;6.30;;
1370;SDS011;14306;49.942;11.570;2023-08-12T03:16:27;7.47;;;6.77;;
1370;SDS011;14306;49.942;11.570;2023-08-12T03:18:55;8.53;;;5.67;;
1370;SDS011;14306;49.942;11.570;2023-08-12T03:21:23;6.83;;;6.00;;
1370;SDS011;14306;49.942;11.570;2023-08-12T03:23:53;9.00;;;6.10;;
1370;SDS011;14306;49.942;11.570;2023-08-12T03:26:21;6.93;;;6.00;;
1370;SDS011;14306;49.942;11.570;2023-08-12T03:28:49;7.67;;;5.57;;
1370;SDS011;14306;49.942;11.570;2023-08-12T03:31:17;6.80;;;6.10;;
1370;SDS011;14306;49.942;11.570;2023-08-12T03:33:46;9.43;;;6.47;;
1370;SDS011;14306;49.942;11.570;2023-08-12T03:36:14;7.13;;;6.30;;
1370;SDS011;14306;49.942;11.570;2023-08-12T03:38:42;6.63;;;5.60;;
1370;SDS011;14306;49.942;11.570;2023-08-12T03:41:12;10.03;;;5.80;;
1370;SDS011;14306;49.942;11.570;2023-08-12T03:43:40;8.30;;;6.03;;
1370;SDS011;14306;49.942;11.570;2023-08-12T03:46:09;5.50;;;4.90;;
1370;SDS011;14306;49.942;11.570;2023-08-12T03:48:37;6.10;;;5.53;;
1370;SDS011;14306;49.942;11.570;2023-08-12T03:51:05;8.87;;;5.93;;
1370;SDS011;14306;49.942;11.570;2023-08-12T03:53:33;11.47;;;6.97;;
1370;SDS011;14306;49.942;11.570;2023-08-12T03:56:01;5.70;;;5.20;;
1370;SDS011;14306;49.942;11.570;2023-08-12T03:58:31;5.50;;;4.90;;
1370;SDS011;14306;49.942;11.570;2023-08-12T04:01:00;5.80;;;5.10;;
1370;SDS011;14306;49.942;11.570;2023-08-12T04:03:28;9.60;;;6.00;;
1370;SDS011;14306;49.942;11.570;2023-08-12T04:05:56;9.97;;;5.50;;
1370;SDS011;14306;49.942;11.570;2023-08-12T04:08:25;10.57;;;5.70;;
1370;SDS011;14306;49.942;11.570;2023-08-12T04:10:53;6.37;;;5.50;;
1370;SDS011;14306;49.942;11.570;2023-08-12T04:13:21;7.40;;;5.13;;
1370;SDS011;14306;49.942;11.570;2023-08-12T04:15:51;6.20;;;5.20;;
1370;SDS011;14306;49.942;11.570;2023-08-12T04:18:20;9.90;;;5.57;;
1370;SDS011;14306;49.942;11.570;2023-08-12T04:20:49;6.00;;;4.73;;
1370;SDS011;14306;49.942;11.570;2023-08-12T04:23:18;7.47;;;5.33;;
1370;SDS011;14306;49.942;11.570;2023-08-12T04:25:47;4.70;;;4.17;;
1370;SDS011;14306;49.942;11.570;2023-08-12T04:28:15;4.00;;;3.67;;
1370;SDS011;14306;49.942;11.570;2023-08-12T04:30:44;5.83;;;4.70;;
1370;SDS011;14306;49.942;11.570;2023-08-12T04:33:14;4.70;;;4.30;;
1370;SDS011;14306;49.942;11.570;2023-08-12T04:35:42;4.60;;;3.97;;
1370;SDS011;14306;49.942;11.570;2023-08-12T04:38:11;4.20;;;3.73;;
1370;SDS011;14306;49.942;11.570;2023-08-12T04:40:39;4.17;;;3.70;;
1370;SDS011;14306;49.942;11.570;2023-08-12T04:43:08;4.93;;;4.43;;
1370;SDS011;14306;49.942;11.570;2023-08-12T04:45:37;4.20;;;3.77;;
1370;SDS011;14306;49.942;11.570;2023-08-12T04:48:06;4.20;;;3.80;;
1370;SDS011;14306;49.942;11.570;2023-08-12T04:50:37;4.40;;;3.57;;
1370;SDS011;14306;49.942;11.570;2023-08-12T04:53:05;3.40;;;3.10;;
1370;SDS011;14306;49.942;11.570;2023-08-12T04:55:33;4.97;;;3.90;;
1370;SDS011;14306;49.942;11.570;2023-08-12T04:58:02;3.93;;;3.53;;
1370;SDS011;14306;49.942;11.570;2023-08-12T05:00:31;4.13;;;3.50;;
1370;SDS011;14306;49.942;11.570;2023-08-12T05:03:00;4.80;;;3.13;;
1370;SDS011;14306;49.942;11.570;2023-08-12T05:05:28;3.67;;;3.17;;
1370;SDS011;14306;49.942;11.570;2023-08-12T05:07:58;3.37;;;3.07;;
1370;SDS011;14306;49.942;11.570;2023-08-12T05:10:26;5.20;;;3.97;;
1370;SDS011;14306;49.942;11.570;2023-08-12T05:12:54;3.30;;;2.47;;
1370;SDS011;14306;49.942;11.570;2023-08-12T05:15:26;13.13;;;3.27;;
1370;SDS011;14306;49.942;11.570;2023-08-12T05:17:54;2.80;;;2.60;;
1370;SDS011;14306;49.942;11.570;2023-08-12T05:20:22;2.87;;;2.60;;
1370;SDS011;14306;49.942;11.570;2023-08-12T05:22:51;3.00;;;2.70;;
1370;SDS011;14306;49.942;11.570;2023-08-12T05:25:20;2.93;;;2.63;;
1370;SDS011;14306;49.942;11.570;2023-08-12T05:27:49;3.70;;;2.80;;
1370;SDS011;14306;49.942;11.570;2023-08-12T05:30:17;6.63;;;2.83;;
1370;SDS011;14306;49.942;11.570;2023-08-12T05:32:45;3.00;;;2.70;;
1370;SDS011;14306;49.942;11.570;2023-08-12T05:35:14;2.97;;;2.67;;
1370;SDS011;14306;49.942;11.570;2023-08-12T05:37:42;4.07;;;2.60;;
1370;SDS011;14306;49.942;11.570;2023-08-12T05:40:11;3.23;;;2.50;;
1370;SDS011;14306;49.942;11.570;2023-08-12T05:42:40;2.80;;;2.60;;
1370;SDS011;14306;49.942;11.570;2023-08-12T05:45:09;2.70;;;2.50;;
1370;SDS011;14306;49.942;11.570;2023-08-12T05:47:37;3.10;;;2.83;;
1370;SDS011;14306;49.942;11.570;2023-08-12T05:50:06;5.37;;;2.53;;
1370;SDS011;14306;49.942;11.570;2023-08-12T05:52:35;3.30;;;2.90;;
1370;SDS011;14306;49.942;11.570;2023-08-12T05:55:03;4.63;;;2.97;;
1370;SDS011;14306;49.942;11.570;2023-08-12T05:57:32;2.77;;;2.57;;
1370;SDS011;14306;49.942;11.570;2023-08-12T06:00:02;4.53;;;3.10;;
1370;SDS011;14306;49.942;11.570;2023-08-12T06:02:32;4.43;;;2.73;;
1370;SDS011;14306;49.942;11.570;2023-08-12T06:05:01;3.27;;;2.97;;
1370;SDS011;14306;49.942;11.570;2023-08-12T06:07:30;3.30;;;3.00;;
1370;SDS011;14306;49.942;11.570;2023-08-12T06:09:58;3.17;;;2.70;;
1370;SDS011;14306;49.942;11.570;2023-08-12T06:12:27;3.33;;;2.50;;
1370;SDS011;14306;49.942;11.570;2023-08-12T06:14:56;3.13;;;2.73;;
1370;SDS011;14306;49.942;11.570;2023-08-12T06:17:25;5.30;;;3.17;;
1370;SDS011;14306;49.942;11.570;2023-08-12T06:19:53;3.03;;;2.77;;
1370;SDS011;14306;49.942;11.570;2023-08-12T06:22:22;4.60;;;2.40;;
1370;SDS011;14306;49.942;11.570;2023-08-12T06:24:50;4.70;;;2.80;;
1370;SDS011;14306;49.942;11.570;2023-08-12T06:27:18;2.67;;;2.47;;
1370;SDS011;14306;49.942;11.570;2023-08-12T06:29:47;3.00;;;2.70;;
1370;SDS011;14306;49.942;11.570;2023-08-12T06:32:15;3.03;;;2.70;;
1370;SDS011;14306;49.942;11.570;2023-08-12T06:34:45;2.93;;;2.73;;
1370;SDS011;14306;49.942;11.570;2023-08-12T06:37:14;3.70;;;2.53;;
1370;SDS011;14306;49.942;11.570;2023-08-12T06:39:42;2.50;;;2.30;;
1370;SDS011;14306;49.942;11.570;2023-08-12T06:42:10;3.40;;;2.77;;
1370;SDS011;14306;49.942;11.570;2023-08-12T06:44:39;2.40;;;2.00;;
1370;SDS011;14306;49.942;11.570;2023-08-12T06:47:08;2.47;;;2.27;;
1370;SDS011;14306;49.942;11.570;2023-08-12T06:49:36;2.50;;;2.30;;
1370;SDS011;14306;49.942;11.570;2023-08-12T06:52:05;2.77;;;2.10;;
1370;SDS011;14306;49.942;11.570;2023-08-12T06:54:33;3.20;;;2.60;;
1370;SDS011;14306;49.942;11.570;2023-08-12T06:57:01;3.40;;;3.10;;
1370;SDS011;14306;49.942;11.570;2023-08-12T06:59:30;4.70;;;2.97;;
1370;SDS011;14306;49.942;11.570;2023-08-12T07:01:58;4.53;;;2.87;;
1370;SDS011;14306;49.942;11.570;2023-08-12T07:04:27;4.07;;;3.23;;
1370;SDS011;14306;49.942;11.570;2023-08-12T07:06:55;3.33;;;2.87;;
1370;SDS011;14306;49.942;11.570;2023-08-12T07:09:24;4.83;;;3.10;;
1370;SDS011;14306;49.942;11.570;2023-08-12T07:11:53;3.77;;;3.40;;
1370;SDS011;14306;49.942;11.570;2023-08-12T07:14:21;3.90;;;3.47;;
1370;SDS011;14306;49.942;11.570;2023-08-12T07:16:49;7.40;;;3.10;;
1370;SDS011;14306;49.942;11.570;2023-08-12T07:19:18;9.27;;;3.97;;
1370;SDS011;14306;49.942;11.570;2023-08-12T07:21:48;5.20;;;3.67;;
1370;SDS011;14306;49.942;11.570;2023-08-12T07:24:16;3.93;;;3.30;;
1370;SDS011;14306;49.942;11.570;2023-08-12T07:26:46;4.27;;;3.20;;
1370;SDS011;14306;49.942;11.570;2023-08-12T07:29:14;5.77;;;4.03;;
1370;SDS011;14306;49.942;11.570;2023-08-12T07:31:42;7.80;;;3.23;;
1370;SDS011;14306;49.942;11.570;2023-08-12T07:34:11;4.43;;;3.20;;
1370;SDS011;14306;49.942;11.570;2023-08-12T07:36:40;3.80;;;3.10;;
1370;SDS011;14306;49.942;11.570;2023-08-12T07:39:08;3.50;;;3.20;;
1370;SDS011;14306;49.942;11.570;2023-08-12T07:41:37;6.33;;;3.80;;
1370;SDS011;14306;49.942;11.570;2023-08-12T07:44:06;4.13;;;3.77;;
1370;SDS011;14306;49.942;11.570;2023-08-12T07:46:35;4.20;;;3.50;;
1370;SDS011;14306;49.942;11.570;2023-08-12T07:49:04;6.30;;;3.67;;
1370;SDS011;14306;49.942;11.570;2023-08-12T07:51:33;3.90;;;3.23;;
1370;SDS011;14306;49.942;11.570;2023-08-12T07:54:02;6.43;;;3.57;;
1370;SDS011;14306;49.942;11.570;2023-08-12T07:56:31;4.90;;;3.10;;
1370;SDS011;14306;49.942;11.570;2023-08-12T07:59:00;5.57;;;3.90;;
1370;SDS011;14306;49.942;11.570;2023-08-12T08:01:30;3.63;;;3.10;;
1370;SDS011;14306;49.942;11.570;2023-08-12T08:04:03;6.40;;;3.40;;
1370;SDS011;14306;49.942;11.570;2023-08-12T08:06:33;3.97;;;3.17;;
1370;SDS011;14306;49.942;11.570;2023-08-12T08:09:02;7.47;;;4.20;;
1370;SDS011;14306;49.942;11.570;2023-08-12T08:11:31;5.93;;;3.23;;
1370;SDS011;14306;49.942;11.570;2023-08-12T08:14:00;4.67;;;3.63;;
1370;SDS011;14306;49.942;11.570;2023-08-12T08:16:31;7.23;;;4.07;;
1370;SDS011;14306;49.942;11.570;2023-08-12T08:19:00;5.13;;;3.73;;
1370;SDS011;14306;49.942;11.570;2023-08-12T08:21:29;7.93;;;4.30;;
1370;SDS011;14306;49.942;11.570;2023-08-12T08:23:58;4.27;;;3.60;;
1370;SDS011;14306;49.942;11.570;2023-08-12T08:26:26;4.70;;;4.13;;
1370;SDS011;14306;49.942;11.570;2023-08-12T08:28:55;7.23;;;3.70;;
1370;SDS011;14306;49.942;11.570;2023-08-12T08:31:24;4.40;;;3.40;;
1370;SDS011;14306;49.942;11.570;2023-08-12T08:33:54;4.73;;;3.43;;
1370;SDS011;14306;49.942;11.570;2023-08-12T08:36:23;4.27;;;3.33;;
1370;SDS011;14306;49.942;11.570;2023-08-12T08:38:51;7.17;;;3.43;;
1370;SDS011;14306;49.942;11.570;2023-08-12T08:41:20;5.77;;;3.30;;
1370;SDS011;14306;49.942;11.570;2023-08-12T08:43:50;4.37;;;3.90;;
1370;SDS011;14306;49.942;11.570;2023-08-12T08:46:20;5.80;;;3.83;;
1370;SDS011;14306;49.942;11.570;2023-08-12T08:48:48;6.70;;;4.03;;
1370;SDS011;14306;49.942;11.570;2023-08-12T08:51:20;5.40;;;3.83;;
1370;SDS011;14306;49.942;11.570;2023-08-12T08:53:49;3.80;;;3.17;;
1370;SDS011;14306;49.942;11.570;2023-08-12T08:56:28;4.13;;;3.03;;
1370;SDS011;14306;49.942;11.570;2023-08-12T08:58:56;3.40;;;3.10;;
1370;SDS011;14306;49.942;11.570;2023-08-12T09:01:26;3.40;;;2.73;;
1370;SDS011;14306;49.942;11.570;2023-08-12T09:03:56;4.40;;;3.13;;
1370;SDS011;14306;49.942;11.570;2023-08-12T09:06:27;4.63;;;2.77;;
1370;SDS011;14306;49.942;11.570;2023-08-12T09:08:57;4.00;;;2.87;;
1370;SDS011;14306;49.942;11.570;2023-08-12T09:11:25;5.77;;;3.13;;
1370;SDS011;14306;49.942;11.570;2023-08-12T09:13:54;3.03;;;2.80;;
1370;SDS011;14306;49.942;11.570;2023-08-12T09:16:22;4.13;;;2.57;;
1370;SDS011;14306;49.942;11.570;2023-08-12T09:18:54;3.43;;;2.87;;
1370;SDS011;14306;49.942;11.570;2023-08-12T09:21:24;7.73;;;3.00;;
1370;SDS011;14306;49.942;11.570;2023-08-12T09:23:54;2.57;;;2.37;;
1370;SDS011;14306;49.942;11.570;2023-08-12T09:26:22;2.87;;;2.67;;
1370;SDS011;14306;49.942;11.570;2023-08-12T09:28:51;3.20;;;2.77;;
1370;SDS011;14306;49.942;11.570;2023-08-12T09:31:24;2.77;;;2.57;;
1370;SDS011;14306;49.942;11.570;2023-08-12T09:33:57;3.80;;;2.80;;
1370;SDS011;14306;49.942;11.570;2023-08-12T09:36:27;3.53;;;3.13;;
1370;SDS011;14306;49.942;11.570;2023-08-12T09:38:59;2.40;;;2.20;;
1370;SDS011;14306;49.942;11.570;2023-08-12T09:41:27;3.87;;;2.70;;
1370;SDS011;14306;49.942;11.570;2023-08-12T09:43:55;3.40;;;3.17;;
1370;SDS011;14306;49.942;11.570;2023-08-12T09:46:24;3.07;;;2.50;;
1370;SDS011;14306;49.942;11.570;2023-08-12T09:48:54;2.50;;;2.13;;
1370;SDS011;14306;49.942;11.570;2023-08-12T09:51:22;5.03;;;2.33;;
1370;SDS011;14306;49.942;11.570;2023-08-12T09:53:51;2.67;;;2.47;;
1370;SDS011;14306;49.942;11.570;2023-08-12T09:56:22;4.90;;;2.97;;
1370;SDS011;14306;49.942;11.570;2023-08-12T09:58:52;2.63;;;2.43;;
1370;SDS011;14306;49.942;11.570;2023-08-12T10:01:21;3.17;;;2.47;;
1370;SDS011;14306;49.942;11.570;2023-08-12T10:03:52;2.53;;;2.33;;
1370;SDS011;14306;49.942;11.570;2023-08-12T10:06:22;3.07;;;2.70;;
1370;SDS011;14306;49.942;11.570;2023-08-12T10:08:52;3.33;;;2.60;;
1370;SDS011;14306;49.942;11.570;2023-08-12T10:11:22;4.03;;;2.50;;
1370;SDS011;14306;49.942;11.570;2023-08-12T10:13:53;3.17;;;2.70;;
1370;SDS011;14306;49.942;11.570;2023-08-12T10:16:22;3.77;;;1.97;;
1370;SDS011;14306;49.942;11.570;2023-08-12T10:18:50;2.17;;;1.97;;
1370;SDS011;14306;49.942;11.570;2023-08-12T10:21:20;4.47;;;3.00;;
1370;SDS011;14306;49.942;11.570;2023-08-12T10:23:50;2.30;;;2.13;;
1370;SDS011;14306;49.942;11.570;2023-08-12T10:26:19;2.30;;;2.00;;
1370;SDS011;14306;49.942;11.570;2023-08-12T10:28:50;3.40;;;2.47;;
1370;SDS011;14306;49.942;11.570;2023-08-12T10:31:19;2.80;;;1.83;;
1370;SDS011;14306;49.942;11.570;2023-08-12T10:33:47;1.87;;;1.63;;
1370;SDS011;14306;49.942;11.570;2023-08-12T10:36:16;1.70;;;1.60;;
1370;SDS011;14306;49.942;11.570;2023-08-12T10:38:45;3.67;;;2.47;;
1370;SDS011;14306;49.942;11.570;2023-08-12T10:41:17;3.57;;;1.93;;
1370;SDS011;14306;49.942;11.570;2023-08-12T10:43:55;3.20;;;1.80;;
1370;SDS011;14306;49.942;11.570;2023-08-12T10:46:28;2.17;;;1.97;;
1370;SDS011;14306;49.942;11.570;2023-08-12T10:48:59;3.63;;;1.60;;
1370;SDS011;14306;49.942;11.570;2023-08-12T10:51:40;2.67;;;2.10;;
1370;SDS011;14306;49.942;11.570;2023-08-12T10:57:09;3.73;;;1.70;;
1370;SDS011;14306;49.942;11.570;2023-08-12T10:59:50;2.07;;;1.80;;
1370;SDS011;14306;49.942;11.570;2023-08-12T11:02:20;2.00;;;1.90;;
1370;SDS011;14306;49.942;11.570;2023-08-12T11:04:54;3.90;;;1.67;;
1370;SDS011;14306;49.942;11.570;2023-08-12T11:07:28;1.80;;;1.70;;
1370;SDS011;14306;49.942;11.570;2023-08-12T11:10:05;2.90;;;1.60;;
1370;SDS011;14306;49.942;11.570;2023-08-12T11:12:39;3.57;;;2.20;;
1370;SDS011;14306;49.942;11.570;2023-08-12T11:15:10;2.10;;;1.90;;
1370;SDS011;14306;49.942;11.570;2023-08-12T11:17:39;2.43;;;2.23;;
1370;SDS011;14306;49.942;11.570;2023-08-12T11:20:09;2.07;;;1.63;;
1370;SDS011;14306;49.942;11.570;2023-08-12T11:22:39;2.37;;;2.17;;
1370;SDS011;14306;49.942;11.570;2023-08-12T11:25:09;3.50;;;2.27;;
1370;SDS011;14306;49.942;11.570;2023-08-12T11:27:40;2.47;;;1.83;;
1370;SDS011;14306;49.942;11.570;2023-08-12T11:30:12;2.53;;;2.10;;
1370;SDS011;14306;49.942;11.570;2023-08-12T11:32:42;1.60;;;1.50;;
1370;SDS011;14306;49.942;11.570;2023-08-12T11:35:12;3.30;;;2.30;;
1370;SDS011;14306;49.942;11.570;2023-08-12T11:37:42;2.20;;;2.00;;
1370;SDS011;14306;49.942;11.570;2023-08-12T11:40:13;2.50;;;1.60;;
1370;SDS011;14306;49.942;11.570;2023-08-12T11:42:43;4.20;;;2.23;;
1370;SDS011;14306;49.942;11.570;2023-08-12T11:45:15;2.40;;;2.00;;
1370;SDS011;14306;49.942;11.570;2023-08-12T11:47:45;2.10;;;1.90;;
1370;SDS011;14306;49.942;11.570;2023-08-12T11:50:21;2.20;;;2.00;;
1370;SDS011;14306;49.942;11.570;2023-08-12T11:52:51;4.90;;;2.00;;
1370;SDS011;14306;49.942;11.570;2023-08-12T11:55:21;3.07;;;2.53;;
1370;SDS011;14306;49.942;11.570;2023-08-12T11:57:51;3.37;;;2.27;;
1370;SDS011;14306;49.942;11.570;2023-08-12T12:00:21;2.13;;;2.03;;
1370;SDS011;14306;49.942;11.570;2023-08-12T12:02:53;3.20;;;2.03;;
1370;SDS011;14306;49.942;11.570;2023-08-12T12:05:23;7.97;;;1.90;;
1370;SDS011;14306;49.942;11.570;2023-08-12T12:07:54;2.70;;;2.00;;
1370;SDS011;14306;49.942;11.570;2023-08-12T12:10:26;2.07;;;1.80;;
1370;SDS011;14306;49.942;11.570;2023-08-12T12:13:00;2.50;;;2.13;;
1370;SDS011;14306;49.942;11.570;2023-08-12T12:15:30;3.07;;;2.43;;
1370;SDS011;14306;49.942;11.570;2023-08-12T12:17:59;4.60;;;2.43;;
1370;SDS011;14306;49.942;11.570;2023-08-12T12:20:27;1.70;;;1.60;;
1370;SDS011;14306;49.942;11.570;2023-08-12T12:22:56;1.90;;;1.80;;
1370;SDS011;14306;49.942;11.570;2023-08-12T12:25:25;2.50;;;2.30;;
1370;SDS011;14306;49.942;11.570;2023-08-12T12:27:53;2.60;;;2.03;;
1370;SDS011;14306;49.942;11.570;2023-08-12T12:30:21;1.80;;;1.70;;
1370;SDS011;14306;49.942;11.570;2023-08-12T12:32:51;2.30;;;2.10;;
1370;SDS011;14306;49.942;11.570;2023-08-12T12:35:20;2.77;;;2.47;;
1370;SDS011;14306;49.942;11.570;2023-08-12T12:37:49;2.87;;;2.67;;
1370;SDS011;14306;49.942;11.570;2023-08-12T12:40:18;2.17;;;2.07;;
1370;SDS011;14306;49.942;11.570;2023-08-12T12:42:46;7.80;;;2.90;;
1370;SDS011;14306;49.942;11.570;2023-08-12T12:45:14;2.37;;;1.70;;
1370;SDS011;14306;49.942;11.570;2023-08-12T12:47:43;3.50;;;2.80;;
1370;SDS011;14306;49.942;11.570;2023-08-12T12:50:14;2.87;;;2.37;;
1370;SDS011;14306;49.942;11.570;2023-08-12T12:52:43;3.93;;;2.10;;
1370;SDS011;14306;49.942;11.570;2023-08-12T12:55:12;2.23;;;2.03;;
1370;SDS011;14306;49.942;11.570;2023-08-12T12:57:41;2.23;;;2.10;;
1370;SDS011;14306;49.942;11.570;2023-08-12T13:00:09;2.50;;;2.30;;
1370;SDS011;14306;49.942;11.570;2023-08-12T13:02:41;2.67;;;1.93;;
1370;SDS011;14306;49.942;11.570;2023-08-12T13:05:09;2.10;;;1.90;;
1370;SDS011;14306;49.942;11.570;2023-08-12T13:07:39;2.20;;;1.87;;
1370;SDS011;14306;49.942;11.570;2023-08-12T13:10:08;2.97;;;2.30;;
1370;SDS011;14306;49.942;11.570;2023-08-12T13:12:36;2.33;;;2.00;;
1370;SDS011;14306;49.942;11.570;2023-08-12T13:15:04;1.70;;;1.60;;
1370;SDS011;14306;49.942;11.570;2023-08-12T13:17:34;3.67;;;1.93;;
1370;SDS011;14306;49.942;11.570;2023-08-12T13:20:02;2.23;;;2.03;;
1370;SDS011;14306;49.942;11.570;2023-08-12T13:22:31;2.37;;;1.97;;
1370;SDS011;14306;49.942;11.570;2023-08-12T13:25:02;2.37;;;2.00;;
1370;SDS011;14306;49.942;11.570;2023-08-12T13:27:30;2.43;;;1.80;;
1370;SDS011;14306;49.942;11.570;2023-08-12T13:29:59;1.70;;;1.60;;
1370;SDS011;14306;49.942;11.570;2023-08-12T13:32:27;2.43;;;2.23;;
1370;SDS011;14306;49.942;11.570;2023-08-12T13:34:56;4.50;;;1.97;;
1370;SDS011;14306;49.942;11.570;2023-08-12T13:37:24;2.40;;;2.20;;
1370;SDS011;14306;49.942;11.570;2023-08-12T13:39:52;5.67;;;2.53;;
1370;SDS011;14306;49.942;11.570;2023-08-12T13:42:22;2.80;;;1.87;;
1370;SDS011;14306;49.942;11.570;2023-08-12T13:44:50;9.37;;;2.20;;
1370;SDS011;14306;49.942;11.570;2023-08-12T13:47:19;3.60;;;2.37;;
1370;SDS011;14306;49.942;11.570;2023-08-12T13:49:47;5.50;;;3.80;;
1370;SDS011;14306;49.942;11.570;2023-08-12T13:52:15;8.60;;;5.60;;
1370;SDS011;14306;49.942;11.570;2023-08-12T13:54:44;6.20;;;3.27;;
1370;SDS011;14306;49.942;11.570;2023-08-12T13:57:12;4.80;;;3.27;;
1370;SDS011;14306;49.942;11.570;2023-08-12T13:59:42;2.83;;;2.60;;
1370;SDS011;14306;49.942;11.570;2023-08-12T14:02:11;3.77;;;2.53;;
1370;SDS011;14306;49.942;11.570;2023-08-12T14:04:39;10.87;;;2.53;;
1370;SDS011;14306;49.942;11.570;2023-08-12T14:07:07;2.90;;;2.17;;
1370;SDS011;14306;49.942;11.570;2023-08-12T14:09:36;4.60;;;2.47;;
1370;SDS011;14306;49.942;11.570;2023-08-12T14:12:05;4.57;;;2.43;;
1370;SDS011;14306;49.942;11.570;2023-08-12T14:14:33;3.13;;;1.77;;
1370;SDS011;14306;49.942;11.570;2023-08-12T14:17:03;2.73;;;1.60;;
1370;SDS011;14306;49.942;11.570;2023-08-12T14:19:31;3.70;;;1.40;;
1370;SDS011;14306;49.942;11.570;2023-08-12T14:22:00;3.20;;;1.67;;
1370;SDS011;14306;49.942;11.570;2023-08-12T14:24:28;2.70;;;1.00;;
1370;SDS011;14306;49.942;11.570;2023-08-12T14:26:56;1.77;;;0.90;;
1370;SDS011;14306;49.942;11.570;2023-08-12T14:29:25;1.87;;;1.33;;
1370;SDS011;14306;49.942;11.570;2023-08-12T14:31:53;2.90;;;1.00;;
1370;SDS011;14306;49.942;11.570;2023-08-12T14:34:23;3.23;;;1.20;;
1370;SDS011;14306;49.942;11.570;2023-08-12T14:36:51;3.77;;;1.73;;
1370;SDS011;14306;49.942;11.570;2023-08-12T14:39:19;6.00;;;1.80;;
1370;SDS011;14306;49.942;11.570;2023-08-12T14:41:48;7.83;;;1.80;;
1370;SDS011;14306;49.942;11.570;2023-08-12T14:48:04;4.20;;;1.70;;
1370;SDS011;14306;49.942;11.570;2023-08-12T14:50:34;3.53;;;1.63;;
1370;SDS011;14306;49.942;11.570;2023-08-12T14:53:04;4.53;;;2.30;;
1370;SDS011;14306;49.942;11.570;2023-08-12T14:55:32;5.10;;;2.20;;
1370;SDS011;14306;49.942;11.570;2023-08-12T14:58:00;6.47;;;2.90;;
1370;SDS011;14306;49.942;11.570;2023-08-12T15:00:28;7.57;;;2.20;;
1370;SDS011;14306;49.942;11.570;2023-08-12T15:02:57;6.43;;;2.70;;
1370;SDS011;14306;49.942;11.570;2023-08-12T15:05:25;2.63;;;2.20;;
1370;SDS011;14306;49.942;11.570;2023-08-12T15:07:54;5.33;;;2.20;;